Terminal Aerodrome Forecast
Issued by NWS Wichita, KS

Home | Current Version | Previous Version | Text Only | Print | Product List | Glossary Off
Versions: 1 2 3 4 5 6 7 8 9 10 11 12 13 14

000
FTUS43 KICT 072333
TAFICT
TAF
KICT 072333Z 0800/0824 36011KT P6SM SCT020 BKN050
     FM080400 34012KT P6SM SCT250
     FM082300 34006KT P6SM SKC=

USA.gov is the U.S. government's official web portal to all federal, state and local government web resources and services.